sensor_id;sensor_type;location;lat;lon;timestamp;P1;durP1;ratioP1;P2;durP2;ratioP2
19800;SDS011;10060;48.274;12.214;2023-01-01T00:02:37;44.40;;;26.53;;
19800;SDS011;10060;48.274;12.214;2023-01-01T00:05:39;55.60;;;32.33;;
19800;SDS011;10060;48.274;12.214;2023-01-01T00:08:43;83.80;;;44.67;;
19800;SDS011;10060;48.274;12.214;2023-01-01T00:11:45;84.27;;;44.57;;
19800;SDS011;10060;48.274;12.214;2023-01-01T00:14:47;84.17;;;44.30;;
19800;SDS011;10060;48.274;12.214;2023-01-01T00:17:49;96.60;;;49.53;;
19800;SDS011;10060;48.274;12.214;2023-01-01T00:20:52;99.30;;;51.27;;
19800;SDS011;10060;48.274;12.214;2023-01-01T00:24:03;103.03;;;50.97;;
19800;SDS011;10060;48.274;12.214;2023-01-01T00:27:05;136.90;;;68.37;;
19800;SDS011;10060;48.274;12.214;2023-01-01T00:30:08;124.07;;;63.43;;
19800;SDS011;10060;48.274;12.214;2023-01-01T00:33:11;113.23;;;55.83;;
19800;SDS011;10060;48.274;12.214;2023-01-01T00:36:14;120.80;;;61.13;;
19800;SDS011;10060;48.274;12.214;2023-01-01T00:39:17;100.10;;;54.40;;
19800;SDS011;10060;48.274;12.214;2023-01-01T00:42:19;96.97;;;50.97;;
19800;SDS011;10060;48.274;12.214;2023-01-01T00:45:21;87.73;;;48.70;;
19800;SDS011;10060;48.274;12.214;2023-01-01T00:48:23;85.63;;;45.83;;
19800;SDS011;10060;48.274;12.214;2023-01-01T00:51:26;81.80;;;43.13;;
19800;SDS011;10060;48.274;12.214;2023-01-01T00:54:30;80.73;;;41.97;;
19800;SDS011;10060;48.274;12.214;2023-01-01T00:57:32;105.30;;;56.23;;
19800;SDS011;10060;48.274;12.214;2023-01-01T01:00:34;148.03;;;74.07;;
19800;SDS011;10060;48.274;12.214;2023-01-01T01:03:36;132.70;;;71.43;;
19800;SDS011;10060;48.274;12.214;2023-01-01T01:06:39;83.80;;;43.97;;
19800;SDS011;10060;48.274;12.214;2023-01-01T01:09:42;63.93;;;34.10;;
19800;SDS011;10060;48.274;12.214;2023-01-01T01:12:44;57.93;;;29.60;;
19800;SDS011;10060;48.274;12.214;2023-01-01T01:15:46;53.87;;;28.67;;
19800;SDS011;10060;48.274;12.214;2023-01-01T01:18:49;51.43;;;28.50;;
19800;SDS011;10060;48.274;12.214;2023-01-01T01:21:51;50.17;;;26.83;;
19800;SDS011;10060;48.274;12.214;2023-01-01T01:24:55;58.40;;;30.33;;
19800;SDS011;10060;48.274;12.214;2023-01-01T01:27:57;57.43;;;29.90;;
19800;SDS011;10060;48.274;12.214;2023-01-01T01:30:59;57.30;;;31.03;;
19800;SDS011;10060;48.274;12.214;2023-01-01T01:34:01;74.17;;;36.90;;
19800;SDS011;10060;48.274;12.214;2023-01-01T01:37:03;94.70;;;50.03;;
19800;SDS011;10060;48.274;12.214;2023-01-01T01:40:07;96.10;;;52.67;;
19800;SDS011;10060;48.274;12.214;2023-01-01T01:43:11;99.63;;;53.37;;
19800;SDS011;10060;48.274;12.214;2023-01-01T01:46:20;107.23;;;57.83;;
19800;SDS011;10060;48.274;12.214;2023-01-01T01:49:25;106.17;;;53.63;;
19800;SDS011;10060;48.274;12.214;2023-01-01T01:52:28;77.73;;;40.30;;
19800;SDS011;10060;48.274;12.214;2023-01-01T01:55:34;66.80;;;34.50;;
19800;SDS011;10060;48.274;12.214;2023-01-01T01:58:37;53.07;;;30.03;;
19800;SDS011;10060;48.274;12.214;2023-01-01T02:01:40;65.20;;;35.43;;
19800;SDS011;10060;48.274;12.214;2023-01-01T02:04:42;82.13;;;41.60;;
19800;SDS011;10060;48.274;12.214;2023-01-01T02:07:44;74.63;;;39.67;;
19800;SDS011;10060;48.274;12.214;2023-01-01T02:10:48;71.93;;;39.30;;
19800;SDS011;10060;48.274;12.214;2023-01-01T02:13:50;83.63;;;41.23;;
19800;SDS011;10060;48.274;12.214;2023-01-01T02:16:54;78.97;;;41.57;;
19800;SDS011;10060;48.274;12.214;2023-01-01T02:20:01;82.97;;;42.37;;
19800;SDS011;10060;48.274;12.214;2023-01-01T02:23:12;83.17;;;44.07;;
19800;SDS011;10060;48.274;12.214;2023-01-01T02:26:20;82.83;;;44.17;;
19800;SDS011;10060;48.274;12.214;2023-01-01T02:29:28;81.13;;;41.63;;
19800;SDS011;10060;48.274;12.214;2023-01-01T02:32:33;78.87;;;41.60;;
19800;SDS011;10060;48.274;12.214;2023-01-01T02:35:37;80.93;;;42.07;;
19800;SDS011;10060;48.274;12.214;2023-01-01T02:38:42;79.70;;;40.57;;
19800;SDS011;10060;48.274;12.214;2023-01-01T02:41:46;74.93;;;40.33;;
19800;SDS011;10060;48.274;12.214;2023-01-01T02:44:51;77.33;;;41.03;;
19800;SDS011;10060;48.274;12.214;2023-01-01T02:47:54;101.30;;;50.97;;
19800;SDS011;10060;48.274;12.214;2023-01-01T02:50:56;84.73;;;41.10;;
19800;SDS011;10060;48.274;12.214;2023-01-01T02:54:00;86.07;;;43.47;;
19800;SDS011;10060;48.274;12.214;2023-01-01T02:57:07;82.47;;;40.27;;
19800;SDS011;10060;48.274;12.214;2023-01-01T03:00:12;80.60;;;39.47;;
19800;SDS011;10060;48.274;12.214;2023-01-01T03:03:27;101.17;;;49.20;;
19800;SDS011;10060;48.274;12.214;2023-01-01T03:06:32;92.90;;;46.57;;
19800;SDS011;10060;48.274;12.214;2023-01-01T03:09:36;100.70;;;50.13;;
19800;SDS011;10060;48.274;12.214;2023-01-01T03:12:42;102.60;;;48.63;;
19800;SDS011;10060;48.274;12.214;2023-01-01T03:15:49;97.83;;;49.10;;
19800;SDS011;10060;48.274;12.214;2023-01-01T03:18:56;104.80;;;51.67;;
19800;SDS011;10060;48.274;12.214;2023-01-01T03:22:10;81.20;;;43.77;;
19800;SDS011;10060;48.274;12.214;2023-01-01T03:25:15;81.63;;;42.60;;
19800;SDS011;10060;48.274;12.214;2023-01-01T03:28:18;70.27;;;38.03;;
19800;SDS011;10060;48.274;12.214;2023-01-01T03:31:24;73.40;;;37.03;;
19800;SDS011;10060;48.274;12.214;2023-01-01T03:34:28;76.20;;;40.33;;
19800;SDS011;10060;48.274;12.214;2023-01-01T03:37:31;77.70;;;39.37;;
19800;SDS011;10060;48.274;12.214;2023-01-01T03:40:34;79.87;;;41.43;;
19800;SDS011;10060;48.274;12.214;2023-01-01T03:43:38;85.60;;;42.53;;
19800;SDS011;10060;48.274;12.214;2023-01-01T03:46:44;80.70;;;42.40;;
19800;SDS011;10060;48.274;12.214;2023-01-01T03:49:46;96.20;;;47.97;;
19800;SDS011;10060;48.274;12.214;2023-01-01T03:52:50;98.87;;;49.57;;
19800;SDS011;10060;48.274;12.214;2023-01-01T03:55:58;99.40;;;50.07;;
19800;SDS011;10060;48.274;12.214;2023-01-01T03:59:06;105.43;;;51.27;;
19800;SDS011;10060;48.274;12.214;2023-01-01T04:02:14;119.77;;;56.73;;
19800;SDS011;10060;48.274;12.214;2023-01-01T04:05:18;108.70;;;51.60;;
19800;SDS011;10060;48.274;12.214;2023-01-01T04:08:20;82.53;;;43.80;;
19800;SDS011;10060;48.274;12.214;2023-01-01T04:11:23;81.73;;;43.53;;
19800;SDS011;10060;48.274;12.214;2023-01-01T04:14:44;81.67;;;40.90;;
19800;SDS011;10060;48.274;12.214;2023-01-01T04:17:48;79.37;;;39.10;;
19800;SDS011;10060;48.274;12.214;2023-01-01T04:20:50;79.20;;;40.53;;
19800;SDS011;10060;48.274;12.214;2023-01-01T04:23:52;83.07;;;41.43;;
19800;SDS011;10060;48.274;12.214;2023-01-01T04:26:54;82.13;;;41.43;;
19800;SDS011;10060;48.274;12.214;2023-01-01T04:29:56;78.03;;;40.97;;
19800;SDS011;10060;48.274;12.214;2023-01-01T04:33:00;91.50;;;45.87;;
19800;SDS011;10060;48.274;12.214;2023-01-01T04:36:02;92.77;;;49.57;;
19800;SDS011;10060;48.274;12.214;2023-01-01T04:39:06;106.27;;;52.47;;
19800;SDS011;10060;48.274;12.214;2023-01-01T04:42:08;102.73;;;51.00;;
19800;SDS011;10060;48.274;12.214;2023-01-01T04:45:10;98.57;;;48.57;;
19800;SDS011;10060;48.274;12.214;2023-01-01T04:48:15;112.03;;;56.90;;
19800;SDS011;10060;48.274;12.214;2023-01-01T04:51:18;120.80;;;59.80;;
19800;SDS011;10060;48.274;12.214;2023-01-01T04:54:20;124.03;;;59.63;;
19800;SDS011;10060;48.274;12.214;2023-01-01T04:57:22;127.87;;;62.90;;
19800;SDS011;10060;48.274;12.214;2023-01-01T05:00:24;120.70;;;60.73;;
19800;SDS011;10060;48.274;12.214;2023-01-01T05:03:28;123.60;;;62.63;;
19800;SDS011;10060;48.274;12.214;2023-01-01T05:06:30;119.70;;;59.37;;
19800;SDS011;10060;48.274;12.214;2023-01-01T05:09:32;124.53;;;59.87;;
19800;SDS011;10060;48.274;12.214;2023-01-01T05:12:34;127.20;;;63.60;;
19800;SDS011;10060;48.274;12.214;2023-01-01T05:15:37;139.93;;;66.10;;
19800;SDS011;10060;48.274;12.214;2023-01-01T05:18:40;127.33;;;62.83;;
19800;SDS011;10060;48.274;12.214;2023-01-01T05:21:42;124.73;;;63.00;;
19800;SDS011;10060;48.274;12.214;2023-01-01T05:24:45;130.90;;;63.87;;
19800;SDS011;10060;48.274;12.214;2023-01-01T05:27:47;130.33;;;66.50;;
19800;SDS011;10060;48.274;12.214;2023-01-01T05:30:49;130.67;;;64.23;;
19800;SDS011;10060;48.274;12.214;2023-01-01T05:33:53;140.93;;;67.80;;
19800;SDS011;10060;48.274;12.214;2023-01-01T05:36:56;127.70;;;62.33;;
19800;SDS011;10060;48.274;12.214;2023-01-01T05:39:58;121.43;;;62.13;;
19800;SDS011;10060;48.274;12.214;2023-01-01T05:43:00;128.03;;;59.67;;
19800;SDS011;10060;48.274;12.214;2023-01-01T05:46:03;114.97;;;58.93;;
19800;SDS011;10060;48.274;12.214;2023-01-01T05:49:09;122.50;;;57.40;;
19800;SDS011;10060;48.274;12.214;2023-01-01T05:52:11;123.90;;;59.73;;
19800;SDS011;10060;48.274;12.214;2023-01-01T05:55:13;115.77;;;59.00;;
19800;SDS011;10060;48.274;12.214;2023-01-01T05:58:15;120.10;;;64.63;;
19800;SDS011;10060;48.274;12.214;2023-01-01T06:01:19;121.67;;;62.90;;
19800;SDS011;10060;48.274;12.214;2023-01-01T06:04:22;121.53;;;62.70;;
19800;SDS011;10060;48.274;12.214;2023-01-01T06:07:24;123.53;;;61.20;;
19800;SDS011;10060;48.274;12.214;2023-01-01T06:10:26;120.17;;;59.60;;
19800;SDS011;10060;48.274;12.214;2023-01-01T06:13:29;112.20;;;59.40;;
19800;SDS011;10060;48.274;12.214;2023-01-01T06:16:31;115.10;;;57.67;;
19800;SDS011;10060;48.274;12.214;2023-01-01T06:19:35;117.43;;;59.70;;
19800;SDS011;10060;48.274;12.214;2023-01-01T06:22:37;121.07;;;59.70;;
19800;SDS011;10060;48.274;12.214;2023-01-01T06:25:39;116.30;;;60.93;;
19800;SDS011;10060;48.274;12.214;2023-01-01T06:28:41;107.30;;;57.67;;
19800;SDS011;10060;48.274;12.214;2023-01-01T06:31:43;113.90;;;59.03;;
19800;SDS011;10060;48.274;12.214;2023-01-01T06:34:46;111.90;;;56.67;;
19800;SDS011;10060;48.274;12.214;2023-01-01T06:37:49;108.30;;;55.60;;
19800;SDS011;10060;48.274;12.214;2023-01-01T06:40:54;110.20;;;57.70;;
19800;SDS011;10060;48.274;12.214;2023-01-01T06:43:57;112.57;;;57.20;;
19800;SDS011;10060;48.274;12.214;2023-01-01T06:47:00;108.90;;;54.47;;
19800;SDS011;10060;48.274;12.214;2023-01-01T06:50:04;103.10;;;55.20;;
19800;SDS011;10060;48.274;12.214;2023-01-01T06:53:07;100.90;;;54.37;;
19800;SDS011;10060;48.274;12.214;2023-01-01T06:56:09;107.53;;;55.37;;
19800;SDS011;10060;48.274;12.214;2023-01-01T06:59:11;112.03;;;56.97;;
19800;SDS011;10060;48.274;12.214;2023-01-01T07:02:13;111.93;;;58.40;;
19800;SDS011;10060;48.274;12.214;2023-01-01T07:05:17;108.40;;;56.23;;
19800;SDS011;10060;48.274;12.214;2023-01-01T07:08:19;105.43;;;56.83;;
19800;SDS011;10060;48.274;12.214;2023-01-01T07:11:21;106.50;;;56.23;;
19800;SDS011;10060;48.274;12.214;2023-01-01T07:14:23;108.10;;;55.90;;
19800;SDS011;10060;48.274;12.214;2023-01-01T07:17:25;113.10;;;57.40;;
19800;SDS011;10060;48.274;12.214;2023-01-01T07:20:28;101.50;;;55.90;;
19800;SDS011;10060;48.274;12.214;2023-01-01T07:23:32;103.47;;;55.20;;
19800;SDS011;10060;48.274;12.214;2023-01-01T07:26:34;115.63;;;57.73;;
19800;SDS011;10060;48.274;12.214;2023-01-01T07:29:36;109.47;;;56.77;;
19800;SDS011;10060;48.274;12.214;2023-01-01T07:32:38;105.07;;;54.97;;
19800;SDS011;10060;48.274;12.214;2023-01-01T07:35:42;104.30;;;53.43;;
19800;SDS011;10060;48.274;12.214;2023-01-01T07:38:44;96.77;;;51.27;;
19800;SDS011;10060;48.274;12.214;2023-01-01T07:41:46;105.50;;;53.00;;
19800;SDS011;10060;48.274;12.214;2023-01-01T07:44:48;103.13;;;54.57;;
19800;SDS011;10060;48.274;12.214;2023-01-01T07:47:52;101.83;;;53.17;;
19800;SDS011;10060;48.274;12.214;2023-01-01T07:50:56;101.70;;;52.50;;
19800;SDS011;10060;48.274;12.214;2023-01-01T07:53:58;104.47;;;54.40;;
19800;SDS011;10060;48.274;12.214;2023-01-01T07:57:00;99.17;;;53.17;;
19800;SDS011;10060;48.274;12.214;2023-01-01T08:00:02;103.17;;;54.33;;
19800;SDS011;10060;48.274;12.214;2023-01-01T08:03:05;99.23;;;51.70;;
19800;SDS011;10060;48.274;12.214;2023-01-01T08:06:09;98.53;;;50.30;;
19800;SDS011;10060;48.274;12.214;2023-01-01T08:09:12;91.13;;;49.80;;
19800;SDS011;10060;48.274;12.214;2023-01-01T08:12:14;102.17;;;54.50;;
19800;SDS011;10060;48.274;12.214;2023-01-01T08:15:16;103.17;;;53.20;;
19800;SDS011;10060;48.274;12.214;2023-01-01T08:18:18;103.03;;;54.77;;
19800;SDS011;10060;48.274;12.214;2023-01-01T08:21:22;99.70;;;55.33;;
19800;SDS011;10060;48.274;12.214;2023-01-01T08:24:24;105.10;;;55.20;;
19800;SDS011;10060;48.274;12.214;2023-01-01T08:27:26;102.20;;;55.87;;
19800;SDS011;10060;48.274;12.214;2023-01-01T08:30:28;94.70;;;53.33;;
19800;SDS011;10060;48.274;12.214;2023-01-01T08:33:30;109.37;;;56.17;;
19800;SDS011;10060;48.274;12.214;2023-01-01T08:36:33;104.17;;;56.13;;
19800;SDS011;10060;48.274;12.214;2023-01-01T08:39:35;107.77;;;57.13;;
19800;SDS011;10060;48.274;12.214;2023-01-01T08:42:38;98.27;;;50.43;;
19800;SDS011;10060;48.274;12.214;2023-01-01T08:45:40;111.37;;;54.97;;
19800;SDS011;10060;48.274;12.214;2023-01-01T08:48:42;99.20;;;54.20;;
19800;SDS011;10060;48.274;12.214;2023-01-01T08:51:45;105.50;;;53.47;;
19800;SDS011;10060;48.274;12.214;2023-01-01T08:54:48;100.40;;;52.30;;
19800;SDS011;10060;48.274;12.214;2023-01-01T08:57:50;100.33;;;50.27;;
19800;SDS011;10060;48.274;12.214;2023-01-01T09:00:52;109.20;;;53.57;;
19800;SDS011;10060;48.274;12.214;2023-01-01T09:03:54;94.40;;;49.20;;
19800;SDS011;10060;48.274;12.214;2023-01-01T09:06:58;92.87;;;48.57;;
19800;SDS011;10060;48.274;12.214;2023-01-01T09:10:00;88.73;;;47.70;;
19800;SDS011;10060;48.274;12.214;2023-01-01T09:13:02;91.53;;;46.73;;
19800;SDS011;10060;48.274;12.214;2023-01-01T09:16:05;90.93;;;47.77;;
19800;SDS011;10060;48.274;12.214;2023-01-01T09:19:07;92.93;;;47.83;;
19800;SDS011;10060;48.274;12.214;2023-01-01T09:22:11;88.80;;;44.63;;
19800;SDS011;10060;48.274;12.214;2023-01-01T09:25:13;91.87;;;46.47;;
19800;SDS011;10060;48.274;12.214;2023-01-01T09:28:15;94.40;;;47.80;;
19800;SDS011;10060;48.274;12.214;2023-01-01T09:31:17;91.00;;;47.30;;
19800;SDS011;10060;48.274;12.214;2023-01-01T09:34:20;89.20;;;45.33;;
19800;SDS011;10060;48.274;12.214;2023-01-01T09:37:23;88.57;;;44.10;;
19800;SDS011;10060;48.274;12.214;2023-01-01T09:40:27;93.63;;;46.83;;
19800;SDS011;10060;48.274;12.214;2023-01-01T09:43:32;84.13;;;43.90;;
19800;SDS011;10060;48.274;12.214;2023-01-01T09:46:37;84.80;;;45.07;;
19800;SDS011;10060;48.274;12.214;2023-01-01T09:49:40;84.23;;;44.80;;
19800;SDS011;10060;48.274;12.214;2023-01-01T09:52:47;85.30;;;44.37;;
19800;SDS011;10060;48.274;12.214;2023-01-01T09:55:51;81.33;;;43.50;;
19800;SDS011;10060;48.274;12.214;2023-01-01T09:58:54;86.10;;;44.23;;
19800;SDS011;10060;48.274;12.214;2023-01-01T10:01:59;78.70;;;42.30;;
19800;SDS011;10060;48.274;12.214;2023-01-01T10:05:06;75.60;;;40.70;;
19800;SDS011;10060;48.274;12.214;2023-01-01T10:08:15;82.40;;;44.07;;
19800;SDS011;10060;48.274;12.214;2023-01-01T10:11:19;88.37;;;43.63;;
19800;SDS011;10060;48.274;12.214;2023-01-01T10:14:25;76.53;;;40.27;;
19800;SDS011;10060;48.274;12.214;2023-01-01T10:17:30;72.80;;;39.77;;
19800;SDS011;10060;48.274;12.214;2023-01-01T10:20:35;68.10;;;37.93;;
19800;SDS011;10060;48.274;12.214;2023-01-01T10:23:40;68.33;;;38.23;;
19800;SDS011;10060;48.274;12.214;2023-01-01T10:26:44;62.17;;;34.13;;
19800;SDS011;10060;48.274;12.214;2023-01-01T10:29:47;61.20;;;34.43;;
19800;SDS011;10060;48.274;12.214;2023-01-01T10:32:51;62.80;;;34.90;;
19800;SDS011;10060;48.274;12.214;2023-01-01T10:35:54;66.20;;;35.90;;
19800;SDS011;10060;48.274;12.214;2023-01-01T10:38:58;65.40;;;36.43;;
19800;SDS011;10060;48.274;12.214;2023-01-01T10:42:00;59.30;;;33.67;;
19800;SDS011;10060;48.274;12.214;2023-01-01T10:45:03;61.73;;;34.93;;
19800;SDS011;10060;48.274;12.214;2023-01-01T10:48:08;60.77;;;34.30;;
19800;SDS011;10060;48.274;12.214;2023-01-01T10:51:13;63.60;;;36.03;;
19800;SDS011;10060;48.274;12.214;2023-01-01T10:54:23;64.53;;;36.53;;
19800;SDS011;10060;48.274;12.214;2023-01-01T10:57:29;61.90;;;35.50;;
19800;SDS011;10060;48.274;12.214;2023-01-01T11:00:32;59.77;;;34.37;;
19800;SDS011;10060;48.274;12.214;2023-01-01T11:03:35;59.30;;;35.37;;
19800;SDS011;10060;48.274;12.214;2023-01-01T11:06:38;60.93;;;35.37;;
19800;SDS011;10060;48.274;12.214;2023-01-01T11:09:42;53.43;;;33.07;;
19800;SDS011;10060;48.274;12.214;2023-01-01T11:12:48;57.00;;;34.50;;
19800;SDS011;10060;48.274;12.214;2023-01-01T11:15:52;58.67;;;33.57;;
19800;SDS011;10060;48.274;12.214;2023-01-01T11:18:59;54.93;;;31.10;;
19800;SDS011;10060;48.274;12.214;2023-01-01T11:22:02;50.47;;;30.37;;
19800;SDS011;10060;48.274;12.214;2023-01-01T11:25:16;51.40;;;28.50;;
19800;SDS011;10060;48.274;12.214;2023-01-01T11:28:19;51.07;;;29.13;;
19800;SDS011;10060;48.274;12.214;2023-01-01T11:31:21;49.03;;;27.63;;
19800;SDS011;10060;48.274;12.214;2023-01-01T11:34:26;42.50;;;27.27;;
19800;SDS011;10060;48.274;12.214;2023-01-01T11:37:29;46.27;;;27.47;;
19800;SDS011;10060;48.274;12.214;2023-01-01T11:40:35;51.70;;;29.43;;
19800;SDS011;10060;48.274;12.214;2023-01-01T11:43:42;55.60;;;31.03;;
19800;SDS011;10060;48.274;12.214;2023-01-01T11:46:45;54.87;;;31.60;;
19800;SDS011;10060;48.274;12.214;2023-01-01T11:49:51;55.77;;;32.40;;
19800;SDS011;10060;48.274;12.214;2023-01-01T11:52:55;58.27;;;33.50;;
19800;SDS011;10060;48.274;12.214;2023-01-01T11:56:01;49.60;;;29.17;;
19800;SDS011;10060;48.274;12.214;2023-01-01T11:59:05;47.43;;;27.93;;
19800;SDS011;10060;48.274;12.214;2023-01-01T12:02:13;48.87;;;29.10;;
19800;SDS011;10060;48.274;12.214;2023-01-01T12:05:16;37.73;;;23.73;;
19800;SDS011;10060;48.274;12.214;2023-01-01T12:08:22;41.70;;;23.83;;
19800;SDS011;10060;48.274;12.214;2023-01-01T12:11:28;38.57;;;23.00;;
19800;SDS011;10060;48.274;12.214;2023-01-01T12:14:34;38.00;;;22.83;;
19800;SDS011;10060;48.274;12.214;2023-01-01T12:17:38;39.97;;;23.43;;
19800;SDS011;10060;48.274;12.214;2023-01-01T12:20:43;39.47;;;23.50;;
19800;SDS011;10060;48.274;12.214;2023-01-01T12:23:47;36.47;;;23.10;;
19800;SDS011;10060;48.274;12.214;2023-01-01T12:26:54;36.50;;;21.43;;
19800;SDS011;10060;48.274;12.214;2023-01-01T12:33:25;44.00;;;25.33;;
19800;SDS011;10060;48.274;12.214;2023-01-01T12:36:31;43.17;;;24.87;;
19800;SDS011;10060;48.274;12.214;2023-01-01T12:42:59;38.13;;;22.90;;
19800;SDS011;10060;48.274;12.214;2023-01-01T12:46:14;34.07;;;20.47;;
19800;SDS011;10060;48.274;12.214;2023-01-01T12:49:29;29.63;;;19.07;;
19800;SDS011;10060;48.274;12.214;2023-01-01T12:52:39;35.60;;;21.83;;
19800;SDS011;10060;48.274;12.214;2023-01-01T12:55:54;30.23;;;19.23;;
19800;SDS011;10060;48.274;12.214;2023-01-01T12:58:59;32.57;;;19.07;;
19800;SDS011;10060;48.274;12.214;2023-01-01T13:02:09;30.50;;;19.17;;
19800;SDS011;10060;48.274;12.214;2023-01-01T13:05:14;32.77;;;18.87;;
19800;SDS011;10060;48.274;12.214;2023-01-01T13:08:17;28.73;;;18.13;;
19800;SDS011;10060;48.274;12.214;2023-01-01T13:11:20;27.83;;;16.97;;
19800;SDS011;10060;48.274;12.214;2023-01-01T13:14:27;27.60;;;17.03;;
19800;SDS011;10060;48.274;12.214;2023-01-01T13:17:29;25.60;;;15.83;;
19800;SDS011;10060;48.274;12.214;2023-01-01T13:20:31;27.37;;;15.73;;
19800;SDS011;10060;48.274;12.214;2023-01-01T13:26:58;23.80;;;15.57;;
19800;SDS011;10060;48.274;12.214;2023-01-01T13:30:01;21.73;;;14.10;;
19800;SDS011;10060;48.274;12.214;2023-01-01T13:33:09;23.77;;;14.53;;
19800;SDS011;10060;48.274;12.214;2023-01-01T13:36:29;24.93;;;14.37;;
19800;SDS011;10060;48.274;12.214;2023-01-01T13:39:50;20.80;;;13.17;;
19800;SDS011;10060;48.274;12.214;2023-01-01T13:43:03;20.70;;;12.93;;
19800;SDS011;10060;48.274;12.214;2023-01-01T13:46:06;23.13;;;13.40;;
19800;SDS011;10060;48.274;12.214;2023-01-01T13:49:14;20.97;;;12.33;;
19800;SDS011;10060;48.274;12.214;2023-01-01T13:52:24;22.23;;;13.70;;
19800;SDS011;10060;48.274;12.214;2023-01-01T13:55:41;24.30;;;14.70;;
19800;SDS011;10060;48.274;12.214;2023-01-01T13:58:56;22.97;;;14.77;;
19800;SDS011;10060;48.274;12.214;2023-01-01T14:02:10;24.47;;;14.17;;
19800;SDS011;10060;48.274;12.214;2023-01-01T14:05:15;22.93;;;14.03;;
19800;SDS011;10060;48.274;12.214;2023-01-01T14:08:28;24.00;;;14.57;;
19800;SDS011;10060;48.274;12.214;2023-01-01T14:11:30;21.90;;;13.33;;
19800;SDS011;10060;48.274;12.214;2023-01-01T14:14:33;26.33;;;13.53;;
19800;SDS011;10060;48.274;12.214;2023-01-01T14:17:36;20.00;;;13.57;;
19800;SDS011;10060;48.274;12.214;2023-01-01T14:20:42;26.77;;;14.63;;
19800;SDS011;10060;48.274;12.214;2023-01-01T14:23:45;24.90;;;14.40;;
19800;SDS011;10060;48.274;12.214;2023-01-01T14:26:49;23.83;;;14.20;;
19800;SDS011;10060;48.274;12.214;2023-01-01T14:29:53;22.03;;;13.67;;
19800;SDS011;10060;48.274;12.214;2023-01-01T14:32:57;21.07;;;13.03;;
19800;SDS011;10060;48.274;12.214;2023-01-01T14:36:00;21.83;;;12.90;;
19800;SDS011;10060;48.274;12.214;2023-01-01T14:39:02;21.73;;;12.20;;
19800;SDS011;10060;48.274;12.214;2023-01-01T14:42:05;19.70;;;12.33;;
19800;SDS011;10060;48.274;12.214;2023-01-01T14:45:12;19.67;;;12.13;;
19800;SDS011;10060;48.274;12.214;2023-01-01T14:48:17;19.10;;;11.77;;
19800;SDS011;10060;48.274;12.214;2023-01-01T14:51:20;19.43;;;11.27;;
19800;SDS011;10060;48.274;12.214;2023-01-01T14:54:24;21.93;;;11.63;;
19800;SDS011;10060;48.274;12.214;2023-01-01T14:57:29;18.87;;;12.37;;
19800;SDS011;10060;48.274;12.214;2023-01-01T15:00:32;18.37;;;11.87;;
19800;SDS011;10060;48.274;12.214;2023-01-01T15:03:36;21.00;;;13.03;;
19800;SDS011;10060;48.274;12.214;2023-01-01T15:06:39;22.27;;;12.77;;
19800;SDS011;10060;48.274;12.214;2023-01-01T15:09:41;20.13;;;12.47;;
19800;SDS011;10060;48.274;12.214;2023-01-01T15:12:43;18.87;;;12.37;;
19800;SDS011;10060;48.274;12.214;2023-01-01T15:15:46;22.43;;;13.90;;
19800;SDS011;10060;48.274;12.214;2023-01-01T15:18:50;20.00;;;13.03;;
19800;SDS011;10060;48.274;12.214;2023-01-01T15:21:52;23.20;;;13.47;;
19800;SDS011;10060;48.274;12.214;2023-01-01T15:24:54;22.27;;;13.00;;
19800;SDS011;10060;48.274;12.214;2023-01-01T15:27:56;23.53;;;13.67;;
19800;SDS011;10060;48.274;12.214;2023-01-01T15:30:58;23.20;;;14.00;;
19800;SDS011;10060;48.274;12.214;2023-01-01T15:34:02;24.03;;;14.10;;
19800;SDS011;10060;48.274;12.214;2023-01-01T15:37:06;23.57;;;14.23;;
19800;SDS011;10060;48.274;12.214;2023-01-01T15:43:26;22.00;;;13.30;;
19800;SDS011;10060;48.274;12.214;2023-01-01T15:46:29;21.10;;;12.50;;
19800;SDS011;10060;48.274;12.214;2023-01-01T15:49:33;20.10;;;13.07;;
19800;SDS011;10060;48.274;12.214;2023-01-01T15:52:36;20.47;;;12.70;;
19800;SDS011;10060;48.274;12.214;2023-01-01T15:55:41;19.63;;;11.63;;
19800;SDS011;10060;48.274;12.214;2023-01-01T15:58:46;15.47;;;9.10;;
19800;SDS011;10060;48.274;12.214;2023-01-01T16:01:50;17.60;;;10.33;;
19800;SDS011;10060;48.274;12.214;2023-01-01T16:04:54;17.10;;;10.50;;
19800;SDS011;10060;48.274;12.214;2023-01-01T16:07:57;15.70;;;9.97;;
19800;SDS011;10060;48.274;12.214;2023-01-01T16:11:00;13.90;;;8.63;;
19800;SDS011;10060;48.274;12.214;2023-01-01T16:14:02;13.23;;;8.57;;
19800;SDS011;10060;48.274;12.214;2023-01-01T16:17:04;11.33;;;8.07;;
19800;SDS011;10060;48.274;12.214;2023-01-01T16:20:08;11.83;;;6.90;;
19800;SDS011;10060;48.274;12.214;2023-01-01T16:23:11;14.00;;;8.07;;
19800;SDS011;10060;48.274;12.214;2023-01-01T16:26:14;16.73;;;8.27;;
19800;SDS011;10060;48.274;12.214;2023-01-01T16:29:16;14.73;;;8.53;;
19800;SDS011;10060;48.274;12.214;2023-01-01T16:32:18;14.30;;;8.40;;
19800;SDS011;10060;48.274;12.214;2023-01-01T16:35:24;14.20;;;7.90;;
19800;SDS011;10060;48.274;12.214;2023-01-01T16:38:26;11.93;;;7.70;;
19800;SDS011;10060;48.274;12.214;2023-01-01T16:41:28;12.90;;;7.87;;
19800;SDS011;10060;48.274;12.214;2023-01-01T16:44:30;15.33;;;7.57;;
19800;SDS011;10060;48.274;12.214;2023-01-01T16:47:32;13.13;;;8.13;;
19800;SDS011;10060;48.274;12.214;2023-01-01T16:50:36;14.80;;;7.80;;
19800;SDS011;10060;48.274;12.214;2023-01-01T16:53:38;13.30;;;8.10;;
19800;SDS011;10060;48.274;12.214;2023-01-01T16:56:40;12.60;;;7.80;;
19800;SDS011;10060;48.274;12.214;2023-01-01T16:59:42;15.07;;;8.37;;
19800;SDS011;10060;48.274;12.214;2023-01-01T17:02:44;15.47;;;8.70;;
19800;SDS011;10060;48.274;12.214;2023-01-01T17:05:50;13.80;;;7.97;;
19800;SDS011;10060;48.274;12.214;2023-01-01T17:08:52;12.53;;;7.67;;
19800;SDS011;10060;48.274;12.214;2023-01-01T17:11:54;12.90;;;8.17;;
19800;SDS011;10060;48.274;12.214;2023-01-01T17:14:56;15.27;;;8.33;;
19800;SDS011;10060;48.274;12.214;2023-01-01T17:17:58;15.47;;;8.80;;
19800;SDS011;10060;48.274;12.214;2023-01-01T17:21:03;16.77;;;9.07;;
19800;SDS011;10060;48.274;12.214;2023-01-01T17:24:05;12.57;;;8.37;;
19800;SDS011;10060;48.274;12.214;2023-01-01T17:27:08;15.60;;;8.20;;
19800;SDS011;10060;48.274;12.214;2023-01-01T17:30:10;14.83;;;8.80;;
19800;SDS011;10060;48.274;12.214;2023-01-01T17:33:12;14.80;;;8.83;;
19800;SDS011;10060;48.274;12.214;2023-01-01T17:36:16;15.03;;;8.07;;
19800;SDS011;10060;48.274;12.214;2023-01-01T17:39:18;11.60;;;7.53;;
19800;SDS011;10060;48.274;12.214;2023-01-01T17:42:20;13.77;;;8.60;;
19800;SDS011;10060;48.274;12.214;2023-01-01T17:45:22;15.27;;;8.83;;
19800;SDS011;10060;48.274;12.214;2023-01-01T17:48:24;16.53;;;10.10;;
19800;SDS011;10060;48.274;12.214;2023-01-01T17:51:27;17.53;;;9.37;;